createdAt,value
2018-05-25T00:00:21.121Z,12.07
2018-05-25T00:02:49.261Z,13.17
2018-05-25T00:05:17.403Z,12.00
2018-05-25T00:07:46.314Z,13.07
2018-05-25T00:10:15.304Z,13.13
2018-05-25T00:12:44.209Z,13.00
2018-05-25T00:15:12.348Z,13.40
2018-05-25T00:17:41.272Z,12.03
2018-05-25T00:20:09.401Z,12.80
2018-05-25T00:22:37.562Z,13.80
2018-05-25T00:25:05.720Z,15.60
2018-05-25T00:27:33.875Z,17.97
2018-05-25T00:30:02.001Z,13.80
2018-05-25T00:32:30.954Z,15.00
2018-05-25T00:34:59.076Z,15.10
2018-05-25T00:37:27.229Z,17.60
2018-05-25T00:39:55.367Z,17.73
2018-05-25T00:42:23.514Z,15.20
2018-05-25T00:44:51.647Z,17.70
2018-05-25T00:47:20.559Z,16.90
2018-05-25T00:49:48.693Z,16.17
2018-05-25T00:52:16.844Z,18.90
2018-05-25T00:54:56.929Z,14.27
2018-05-25T00:57:25.892Z,13.60
2018-05-25T00:59:54.036Z,13.83
2018-05-25T01:02:22.176Z,20.70
2018-05-25T01:04:50.311Z,13.70
2018-05-25T01:07:18.464Z,15.23
2018-05-25T01:09:46.615Z,18.40
2018-05-25T01:12:15.932Z,17.77
2018-05-25T01:14:44.054Z,18.10
2018-05-25T01:17:12.956Z,19.10
2018-05-25T01:19:41.868Z,16.60
2018-05-25T01:22:10.022Z,19.97
2018-05-25T01:24:38.169Z,21.03
2018-05-25T01:27:06.293Z,21.37
2018-05-25T01:29:34.510Z,23.77
2018-05-25T01:32:02.655Z,16.27
2018-05-25T01:34:30.791Z,17.53
2018-05-25T01:36:58.936Z,16.50
2018-05-25T01:39:27.862Z,15.60
2018-05-25T01:41:55.989Z,22.07
2018-05-25T01:44:24.908Z,18.50
2018-05-25T01:46:53.051Z,23.30
2018-05-25T01:49:21.189Z,26.70
2018-05-25T01:51:49.325Z,21.10
2018-05-25T01:54:17.476Z,18.83
2018-05-25T01:56:46.396Z,20.90
2018-05-25T01:59:14.548Z,19.33
2018-05-25T02:01:43.437Z,24.13
2018-05-25T02:04:11.578Z,20.03
2018-05-25T02:06:39.723Z,22.50
2018-05-25T02:09:07.846Z,21.63
2018-05-25T02:11:36.758Z,21.43
2018-05-25T02:14:04.895Z,20.40
2018-05-25T02:16:33.036Z,16.73
2018-05-25T02:19:01.171Z,16.33
2018-05-25T02:21:29.325Z,15.57
2018-05-25T02:23:57.452Z,17.97
2018-05-25T02:26:26.368Z,14.17
2018-05-25T02:28:55.269Z,14.23
2018-05-25T02:31:24.180Z,14.70
2018-05-25T02:33:52.320Z,17.10
2018-05-25T02:36:20.534Z,19.57
2018-05-25T02:38:48.674Z,19.50
2018-05-25T02:41:16.862Z,17.63
2018-05-25T02:43:44.993Z,18.20
2018-05-25T02:46:13.149Z,21.00
2018-05-25T02:48:42.070Z,20.00
2018-05-25T02:51:10.225Z,18.93
2018-05-25T02:53:38.394Z,16.80
2018-05-25T02:56:06.519Z,17.73
2018-05-25T02:58:34.676Z,16.20
2018-05-25T03:01:03.568Z,17.73
2018-05-25T03:03:31.724Z,17.20
2018-05-25T03:05:59.859Z,20.80
2018-05-25T03:08:28.771Z,18.93
2018-05-25T03:10:56.947Z,19.80
2018-05-25T03:13:25.122Z,18.33
2018-05-25T03:15:53.243Z,17.30
2018-05-25T03:18:21.393Z,16.70
2018-05-25T03:20:49.529Z,17.03
2018-05-25T03:23:17.673Z,18.67
2018-05-25T03:25:45.803Z,25.70
2018-05-25T03:28:13.956Z,24.57
2018-05-25T03:30:42.885Z,46.57
2018-05-25T03:33:11.036Z,22.60
2018-05-25T03:35:39.197Z,22.10
2018-05-25T03:38:08.137Z,33.27
2018-05-25T03:40:36.267Z,24.90
2018-05-25T03:43:04.445Z,28.73
2018-05-25T03:45:33.717Z,34.13
2018-05-25T03:48:01.869Z,35.00
2018-05-25T03:50:30.019Z,23.83
2018-05-25T03:52:58.160Z,20.47
2018-05-25T03:55:26.305Z,16.70
2018-05-25T03:57:54.428Z,23.17
2018-05-25T04:00:34.312Z,19.33
2018-05-25T04:03:02.453Z,19.60
2018-05-25T04:05:30.598Z,17.40
2018-05-25T04:07:58.734Z,14.90
2018-05-25T04:10:26.880Z,19.53
2018-05-25T04:12:55.870Z,17.10
2018-05-25T04:15:24.017Z,19.07
2018-05-25T04:17:52.176Z,20.13
2018-05-25T04:20:20.448Z,15.57
2018-05-25T04:22:48.577Z,20.80
2018-05-25T04:25:16.729Z,27.67
2018-05-25T04:27:44.864Z,22.23
2018-05-25T04:30:13.030Z,18.10
2018-05-25T04:32:41.182Z,16.57
2018-05-25T04:35:10.088Z,22.03
2018-05-25T04:37:38.996Z,21.50
2018-05-25T04:40:07.140Z,17.30
2018-05-25T04:42:36.032Z,17.20
2018-05-25T04:45:04.948Z,15.93
2018-05-25T04:47:33.470Z,15.40
2018-05-25T04:50:01.640Z,16.90
2018-05-25T04:52:29.833Z,28.27
2018-05-25T04:54:57.928Z,17.30
2018-05-25T04:57:26.061Z,17.30
2018-05-25T04:59:54.207Z,15.97
2018-05-25T05:02:22.344Z,15.30
2018-05-25T05:04:50.507Z,17.77
2018-05-25T05:07:18.644Z,15.97
2018-05-25T05:09:46.775Z,18.23
2018-05-25T05:12:14.920Z,17.40
2018-05-25T05:14:43.079Z,17.00
2018-05-25T05:17:11.976Z,17.33
2018-05-25T05:19:40.897Z,22.23
2018-05-25T05:22:09.038Z,19.13
2018-05-25T05:24:37.188Z,18.47
2018-05-25T05:27:05.337Z,19.97
2018-05-25T05:29:33.507Z,19.57
2018-05-25T05:32:01.616Z,17.73
2018-05-25T05:34:30.565Z,18.27
2018-05-25T05:36:58.722Z,17.93
2018-05-25T05:39:26.857Z,17.77
2018-05-25T05:41:55.777Z,19.13
2018-05-25T05:44:23.929Z,19.03
2018-05-25T05:46:52.845Z,17.03
2018-05-25T05:49:20.974Z,19.13
2018-05-25T05:51:49.996Z,17.53
2018-05-25T05:54:18.131Z,18.50
2018-05-25T05:56:46.301Z,24.00
2018-05-25T05:59:14.449Z,21.80
2018-05-25T06:01:42.613Z,27.30
2018-05-25T06:04:10.756Z,22.43
2018-05-25T06:06:38.900Z,20.60
2018-05-25T06:09:07.805Z,19.50
2018-05-25T06:11:35.945Z,21.97
2018-05-25T06:14:04.075Z,19.30
2018-05-25T06:16:32.236Z,19.93
2018-05-25T06:19:00.517Z,21.10
2018-05-25T06:21:30.716Z,23.60
2018-05-25T06:23:58.853Z,20.13
2018-05-25T06:26:26.983Z,26.70
2018-05-25T06:28:55.144Z,26.73
2018-05-25T06:31:23.284Z,22.50
2018-05-25T06:33:52.210Z,21.57
2018-05-25T06:36:20.336Z,23.33
2018-05-25T06:38:48.501Z,25.43
2018-05-25T06:41:16.637Z,22.50
2018-05-25T06:43:44.798Z,17.30
2018-05-25T06:46:12.939Z,21.57
2018-05-25T06:48:41.860Z,17.50
2018-05-25T06:51:09.989Z,18.97
2018-05-25T06:53:38.140Z,16.67
2018-05-25T06:56:06.275Z,20.60
2018-05-25T06:58:34.427Z,16.27
2018-05-25T07:01:02.574Z,16.97
2018-05-25T07:03:31.489Z,19.77
2018-05-25T07:05:59.624Z,18.87
2018-05-25T07:08:27.780Z,18.70
2018-05-25T07:10:55.912Z,18.97
2018-05-25T07:13:24.071Z,22.40
2018-05-25T07:15:52.200Z,26.10
2018-05-25T07:18:20.342Z,23.90
2018-05-25T07:20:48.552Z,20.27
2018-05-25T07:23:17.469Z,25.27
2018-05-25T07:25:45.621Z,23.40
2018-05-25T07:28:13.760Z,24.13
2018-05-25T07:30:41.916Z,20.20
2018-05-25T07:33:10.036Z,22.37
2018-05-25T07:35:38.957Z,23.90
2018-05-25T07:38:07.178Z,19.10
2018-05-25T07:40:35.314Z,22.37
2018-05-25T07:43:03.443Z,21.30
2018-05-25T07:45:32.364Z,22.63
2018-05-25T07:48:00.494Z,23.23
2018-05-25T07:50:29.457Z,18.43
2018-05-25T07:52:57.590Z,19.77
2018-05-25T07:55:25.769Z,20.87
2018-05-25T07:57:53.896Z,18.00
2018-05-25T08:00:22.062Z,16.30
2018-05-25T08:02:50.184Z,15.33
2018-05-25T08:05:18.329Z,14.80
2018-05-25T08:07:46.464Z,13.20
2018-05-25T08:10:14.634Z,14.93
2018-05-25T08:12:42.753Z,12.53
2018-05-25T08:15:10.886Z,11.13
2018-05-25T08:17:39.049Z,11.43
2018-05-25T08:20:07.192Z,11.80
2018-05-25T08:22:35.337Z,11.83
2018-05-25T08:25:03.490Z,9.77
2018-05-25T08:27:31.643Z,9.03
2018-05-25T08:29:59.783Z,8.50
2018-05-25T08:32:27.932Z,8.23
2018-05-25T08:34:56.052Z,8.17
2018-05-25T08:37:24.193Z,8.27
2018-05-25T08:39:52.307Z,7.30
2018-05-25T08:42:20.461Z,8.47
2018-05-25T08:44:48.617Z,8.00
2018-05-25T08:47:16.768Z,6.67
2018-05-25T08:49:45.264Z,7.20
2018-05-25T08:52:13.730Z,8.50
2018-05-25T08:54:42.215Z,6.33
2018-05-25T08:57:10.356Z,9.20
2018-05-25T08:59:39.613Z,10.90
2018-05-25T09:02:07.837Z,14.30
2018-05-25T09:04:35.973Z,10.30
2018-05-25T09:07:04.135Z,11.03
2018-05-25T09:09:32.281Z,13.37
2018-05-25T09:12:00.432Z,11.47
2018-05-25T09:14:28.561Z,12.90
2018-05-25T09:16:56.716Z,9.90
2018-05-25T09:19:24.839Z,11.23
2018-05-25T09:21:53.095Z,11.77
2018-05-25T09:24:21.893Z,11.40
2018-05-25T09:26:50.780Z,12.03
2018-05-25T09:29:18.920Z,10.53
2018-05-25T09:31:47.042Z,13.10
2018-05-25T09:34:15.171Z,9.70
2018-05-25T09:36:43.314Z,9.70
2018-05-25T09:39:11.470Z,9.27
2018-05-25T09:41:39.589Z,7.53
2018-05-25T09:44:07.719Z,5.73
2018-05-25T09:46:35.840Z,6.33
2018-05-25T09:49:03.978Z,8.20
2018-05-25T09:51:32.107Z,7.70
2018-05-25T09:54:00.238Z,8.33
2018-05-25T09:56:28.372Z,7.70
2018-05-25T09:58:56.498Z,6.20
2018-05-25T10:01:25.477Z,6.17
2018-05-25T10:03:53.609Z,6.10
2018-05-25T10:06:21.747Z,6.20
2018-05-25T10:08:49.883Z,6.23
2018-05-25T10:11:18.012Z,7.80
2018-05-25T10:13:46.155Z,6.20
2018-05-25T10:16:15.043Z,7.10
2018-05-25T10:18:43.942Z,8.30
2018-05-25T10:21:12.064Z,8.00
2018-05-25T10:23:40.179Z,7.70
2018-05-25T10:26:09.074Z,6.80
2018-05-25T10:28:37.200Z,6.83
2018-05-25T10:31:05.331Z,9.70
2018-05-25T10:33:33.446Z,8.40
2018-05-25T10:36:01.582Z,9.43
2018-05-25T10:38:29.700Z,7.87
2018-05-25T10:40:57.882Z,9.00
2018-05-25T10:43:25.974Z,9.10
2018-05-25T10:45:54.103Z,9.43
2018-05-25T10:48:22.224Z,9.00
2018-05-25T10:50:50.357Z,9.43
2018-05-25T10:53:18.480Z,9.90
2018-05-25T10:55:46.607Z,7.10
2018-05-25T10:58:14.734Z,9.30
2018-05-25T11:00:43.828Z,11.60
2018-05-25T11:03:11.970Z,11.90
2018-05-25T11:05:40.107Z,11.10
2018-05-25T11:08:09.015Z,10.43
2018-05-25T11:10:37.937Z,10.37
2018-05-25T11:13:06.068Z,11.10
2018-05-25T11:15:34.217Z,9.37
2018-05-25T11:18:02.338Z,9.13
2018-05-25T11:20:30.493Z,10.40
2018-05-25T11:22:59.383Z,11.27
2018-05-25T11:25:28.284Z,10.47
2018-05-25T11:27:56.432Z,9.23
2018-05-25T11:30:25.329Z,9.10
2018-05-25T11:32:53.822Z,10.13
2018-05-25T11:35:21.940Z,10.10
2018-05-25T11:37:50.124Z,10.70
2018-05-25T11:40:18.997Z,10.83
2018-05-25T11:42:47.134Z,11.63
2018-05-25T11:45:15.262Z,10.07
2018-05-25T11:47:43.405Z,9.50
2018-05-25T11:50:11.507Z,9.13
2018-05-25T11:52:39.641Z,7.70
2018-05-25T11:55:07.753Z,8.87
2018-05-25T11:57:36.230Z,7.20
2018-05-25T12:00:04.350Z,7.63
2018-05-25T12:02:32.494Z,8.90
2018-05-25T12:05:01.386Z,7.73
2018-05-25T12:07:30.283Z,7.47
2018-05-25T12:09:58.418Z,9.10
2018-05-25T12:12:26.562Z,7.43
2018-05-25T12:14:54.684Z,8.70
2018-05-25T12:17:23.568Z,7.60
2018-05-25T12:19:52.474Z,6.73
2018-05-25T12:22:21.360Z,7.77
2018-05-25T12:24:49.511Z,7.10
2018-05-25T12:27:17.636Z,6.40
2018-05-25T12:29:45.777Z,6.40
2018-05-25T12:32:13.902Z,6.97
2018-05-25T12:34:42.043Z,6.77
2018-05-25T12:37:10.155Z,6.10
2018-05-25T12:39:38.284Z,7.20
2018-05-25T12:42:06.405Z,6.83
2018-05-25T12:58:05.235Z,5.80
2018-05-25T13:00:33.369Z,6.17
2018-05-25T13:03:01.480Z,6.40
2018-05-25T13:05:29.619Z,5.83
2018-05-25T13:07:57.726Z,6.00
2018-05-25T13:10:25.857Z,6.67
2018-05-25T13:12:54.043Z,5.17
2018-05-25T13:15:22.173Z,6.40
2018-05-25T13:17:50.294Z,5.30
2018-05-25T13:20:18.430Z,6.40
2018-05-25T13:22:47.319Z,6.47
2018-05-25T13:25:16.216Z,5.60
2018-05-25T13:27:45.096Z,6.03
2018-05-25T13:30:13.987Z,6.30
2018-05-25T13:32:42.888Z,5.53
2018-05-25T13:35:11.018Z,7.10
2018-05-25T13:37:39.164Z,5.90
2018-05-25T13:40:07.311Z,6.37
2018-05-25T13:42:35.440Z,6.50
2018-05-25T13:45:03.556Z,5.50
2018-05-25T13:47:31.707Z,5.60
2018-05-25T13:50:00.589Z,7.03
2018-05-25T13:52:29.487Z,5.70
2018-05-25T13:54:58.413Z,6.43
2018-05-25T13:57:26.551Z,6.00
2018-05-25T13:59:54.694Z,6.00
2018-05-25T14:02:22.839Z,5.57
2018-05-25T14:04:51.439Z,5.30
2018-05-25T14:07:19.552Z,4.73
2018-05-25T14:09:47.683Z,5.37
2018-05-25T14:12:15.824Z,5.50
2018-05-25T14:14:43.956Z,5.00
2018-05-25T14:17:12.855Z,5.03
2018-05-25T14:19:41.029Z,5.20
2018-05-25T14:22:09.166Z,5.27
2018-05-25T14:24:37.302Z,5.13
2018-05-25T14:27:05.463Z,5.27
2018-05-25T14:29:33.579Z,5.10
2018-05-25T14:32:01.690Z,5.83
2018-05-25T14:34:29.820Z,4.83
2018-05-25T14:36:57.965Z,4.60
2018-05-25T14:39:26.893Z,5.03
2018-05-25T14:41:55.047Z,4.40
2018-05-25T14:44:23.197Z,4.63
2018-05-25T14:46:51.303Z,4.53
2018-05-25T14:49:20.286Z,4.10
2018-05-25T14:51:48.769Z,4.20
2018-05-25T14:54:16.895Z,3.57
2018-05-25T14:56:45.026Z,3.70
2018-05-25T14:59:13.931Z,3.47
2018-05-25T15:01:42.058Z,3.30
2018-05-25T15:04:10.187Z,3.20
2018-05-25T15:06:38.321Z,3.97
2018-05-25T15:09:06.439Z,4.13
2018-05-25T15:11:34.567Z,4.87
2018-05-25T15:14:03.455Z,4.77
2018-05-25T15:16:31.576Z,4.27
2018-05-25T15:18:59.702Z,4.73
2018-05-25T15:21:29.687Z,5.90
2018-05-25T15:23:57.842Z,6.07
2018-05-25T15:26:25.948Z,5.70
2018-05-25T15:28:54.080Z,5.70
2018-05-25T15:31:22.207Z,5.40
2018-05-25T15:33:50.315Z,5.50
2018-05-25T15:36:18.447Z,6.03
2018-05-25T15:38:47.327Z,6.13
2018-05-25T15:41:16.228Z,6.20
2018-05-25T15:43:45.103Z,5.90
2018-05-25T15:46:13.990Z,5.90
2018-05-25T15:48:42.882Z,5.73
2018-05-25T15:51:11.012Z,6.70
2018-05-25T15:53:39.142Z,5.60
2018-05-25T15:56:07.280Z,5.40
2018-05-25T15:58:35.388Z,5.60
2018-05-25T16:01:03.514Z,6.53
2018-05-25T16:03:31.652Z,6.50
2018-05-25T16:05:59.788Z,5.90
2018-05-25T16:08:28.675Z,5.07
2018-05-25T16:10:57.566Z,5.43
2018-05-25T16:13:26.452Z,5.23
2018-05-25T16:15:55.350Z,5.40
2018-05-25T16:18:24.224Z,5.00
2018-05-25T16:20:52.350Z,5.20
2018-05-25T16:23:20.479Z,4.97
2018-05-25T16:25:49.750Z,4.30
2018-05-25T16:28:18.618Z,4.80
2018-05-25T16:30:46.758Z,5.10
2018-05-25T16:36:12.676Z,4.93
2018-05-25T16:38:41.605Z,4.80
2018-05-25T16:41:10.517Z,4.90
2018-05-25T16:43:38.648Z,4.73
2018-05-25T16:46:06.813Z,4.50
2018-05-25T16:48:35.699Z,5.33
2018-05-25T16:51:03.841Z,5.10
2018-05-25T16:53:31.985Z,5.40
2018-05-25T16:56:00.144Z,5.03
2018-05-25T16:58:28.286Z,6.40
2018-05-25T17:00:57.185Z,5.27
2018-05-25T17:03:25.341Z,5.60
2018-05-25T17:05:53.473Z,5.50
2018-05-25T17:08:21.613Z,5.43
2018-05-25T17:10:49.748Z,6.00
2018-05-25T17:13:18.673Z,5.80
2018-05-25T17:15:47.190Z,6.60
2018-05-25T17:18:15.325Z,5.87
2018-05-25T17:20:43.461Z,5.67
2018-05-25T17:23:11.632Z,6.07
2018-05-25T17:25:40.534Z,5.90
2018-05-25T17:28:09.454Z,5.70
2018-05-25T17:30:37.587Z,5.97
2018-05-25T17:33:05.734Z,6.33
2018-05-25T17:35:33.865Z,6.30
2018-05-25T17:38:02.009Z,6.53
2018-05-25T17:40:30.926Z,6.10
2018-05-25T17:42:59.097Z,6.60
2018-05-25T17:45:27.231Z,6.07
2018-05-25T17:47:56.134Z,5.67
2018-05-25T17:50:24.281Z,5.80
2018-05-25T17:52:52.419Z,6.07
2018-05-25T17:55:20.561Z,5.77
2018-05-25T17:57:48.693Z,5.50
2018-05-25T18:00:16.862Z,5.13
2018-05-25T18:02:44.997Z,5.10
2018-05-25T18:05:13.140Z,5.13
2018-05-25T18:07:41.274Z,4.93
2018-05-25T18:10:09.509Z,4.50
2018-05-25T18:12:37.672Z,4.93
2018-05-25T18:15:05.829Z,5.27
2018-05-25T18:17:34.013Z,4.97
2018-05-25T18:20:02.190Z,5.30
2018-05-25T18:22:30.384Z,5.57
2018-05-25T18:24:58.530Z,5.47
2018-05-25T18:27:26.665Z,5.40
2018-05-25T18:29:54.816Z,5.00
2018-05-25T18:32:23.851Z,4.93
2018-05-25T18:34:52.005Z,5.30
2018-05-25T18:37:20.906Z,5.50
2018-05-25T18:39:49.054Z,5.13
2018-05-25T18:42:17.234Z,5.40
2018-05-25T18:44:46.170Z,4.97
2018-05-25T18:47:14.292Z,5.70
2018-05-25T18:49:42.438Z,4.37
2018-05-25T18:52:13.097Z,4.80
2018-05-25T18:54:41.292Z,5.07
2018-05-25T18:57:10.257Z,4.87
2018-05-25T18:59:38.438Z,4.70
2018-05-25T19:02:06.579Z,5.10
2018-05-25T19:04:34.731Z,4.83
2018-05-25T19:07:02.881Z,5.20
2018-05-25T19:09:31.011Z,4.87
2018-05-25T19:11:59.183Z,4.70
2018-05-25T19:14:27.322Z,4.93
2018-05-25T19:16:55.506Z,5.30
2018-05-25T19:19:23.700Z,5.70
2018-05-25T19:21:51.902Z,5.87
2018-05-25T19:24:20.037Z,5.10
2018-05-25T19:26:48.230Z,5.10
2018-05-25T19:29:16.394Z,4.97
2018-05-25T19:31:44.539Z,4.93
2018-05-25T19:34:13.464Z,5.70
2018-05-25T19:36:41.601Z,5.73
2018-05-25T19:39:09.730Z,4.90
2018-05-25T19:41:37.997Z,5.97
2018-05-25T19:44:06.593Z,5.50
2018-05-25T19:46:35.493Z,5.60
2018-05-25T19:49:03.684Z,5.73
2018-05-25T19:51:31.838Z,5.03
2018-05-25T19:53:59.970Z,5.60
2018-05-25T19:56:28.861Z,5.03
2018-05-25T19:58:57.792Z,5.77
2018-05-25T20:01:25.921Z,5.40
2018-05-25T20:03:54.905Z,4.60
2018-05-25T20:06:22.974Z,5.90
2018-05-25T20:08:51.109Z,6.23
2018-05-25T20:11:19.338Z,5.97
2018-05-25T20:13:47.804Z,5.70
2018-05-25T20:16:16.765Z,6.77
2018-05-25T20:18:44.865Z,6.03
2018-05-25T20:21:13.786Z,6.77
2018-05-25T20:23:41.922Z,6.20
2018-05-25T20:26:10.058Z,6.80
2018-05-25T20:28:38.205Z,6.73
2018-05-25T20:31:06.327Z,6.40
2018-05-25T20:33:35.242Z,6.90
2018-05-25T20:36:04.141Z,8.00
2018-05-25T20:38:32.291Z,8.20
2018-05-25T20:41:00.417Z,8.30
2018-05-25T20:43:28.578Z,7.80
2018-05-25T20:45:56.709Z,7.30
2018-05-25T20:48:25.626Z,9.17
2018-05-25T20:50:53.752Z,8.17
2018-05-25T20:53:21.897Z,8.60
2018-05-25T20:55:50.017Z,8.70
2018-05-25T20:58:18.941Z,8.23
2018-05-25T21:00:47.077Z,8.80
2018-05-25T21:03:15.213Z,8.83
2018-05-25T21:05:43.363Z,9.80
2018-05-25T21:08:11.498Z,10.27
2018-05-25T21:10:40.585Z,9.77
2018-05-25T21:13:09.481Z,10.00
2018-05-25T21:15:37.640Z,10.63
2018-05-25T21:18:06.540Z,9.37
2018-05-25T21:20:35.466Z,11.60
2018-05-25T21:23:03.613Z,11.50
2018-05-25T21:25:31.780Z,11.23
2018-05-25T21:28:00.673Z,11.40
2018-05-25T21:30:28.838Z,9.40
2018-05-25T21:32:57.741Z,9.60
2018-05-25T21:35:25.886Z,10.53
2018-05-25T21:37:54.793Z,10.90
2018-05-25T21:40:22.969Z,11.70
2018-05-25T21:42:51.902Z,11.33
2018-05-25T21:45:20.829Z,12.70
2018-05-25T21:47:49.742Z,11.73
2018-05-25T21:50:19.949Z,12.00
2018-05-25T21:52:48.856Z,13.57
2018-05-25T21:55:17.146Z,12.37
2018-05-25T21:57:45.322Z,12.63
2018-05-25T22:00:13.500Z,13.30
2018-05-25T22:02:41.655Z,13.40
2018-05-25T22:05:09.809Z,11.53
2018-05-25T22:07:37.961Z,13.93
2018-05-25T22:10:06.870Z,13.47
2018-05-25T22:12:35.082Z,13.80
2018-05-25T22:15:03.233Z,15.70
2018-05-25T22:17:31.389Z,13.67
2018-05-25T22:19:59.538Z,13.90
2018-05-25T22:22:28.485Z,14.20
2018-05-25T22:24:56.624Z,13.80
2018-05-25T22:27:24.839Z,15.33
2018-05-25T22:29:52.966Z,12.90
2018-05-25T22:32:21.122Z,14.00
2018-05-25T22:34:50.041Z,15.43
2018-05-25T22:37:18.198Z,15.00
2018-05-25T22:39:46.348Z,14.57
2018-05-25T22:42:27.134Z,16.30
2018-05-25T22:45:07.012Z,14.40
2018-05-25T22:47:47.059Z,14.43
2018-05-25T22:50:26.909Z,13.60
2018-05-25T22:53:00.237Z,16.50
2018-05-25T22:55:28.381Z,15.80
2018-05-25T22:57:56.541Z,17.90
2018-05-25T23:00:24.692Z,17.13
2018-05-25T23:02:52.853Z,15.30
2018-05-25T23:05:20.988Z,17.00
2018-05-25T23:07:49.915Z,17.07
2018-05-25T23:10:18.812Z,15.90
2018-05-25T23:12:46.977Z,16.20
2018-05-25T23:15:15.900Z,16.67
2018-05-25T23:17:44.087Z,16.50
2018-05-25T23:20:12.232Z,15.03
2018-05-25T23:22:40.384Z,15.63
2018-05-25T23:25:08.524Z,15.40
2018-05-25T23:27:36.698Z,16.93
2018-05-25T23:30:04.843Z,16.30
2018-05-25T23:32:33.004Z,15.27
2018-05-25T23:35:01.938Z,16.40
2018-05-25T23:37:30.152Z,16.23
2018-05-25T23:39:58.284Z,17.03
2018-05-25T23:42:26.473Z,15.77
2018-05-25T23:44:55.389Z,17.90
2018-05-25T23:47:23.534Z,16.90
2018-05-25T23:49:52.462Z,17.37
2018-05-25T23:52:20.606Z,16.00
2018-05-25T23:54:48.757Z,17.47
2018-05-25T23:57:16.898Z,18.13
2018-05-25T23:59:45.065Z,17.23
